createdAt,value
2023-05-18T00:00:56.923Z,100751.38
2023-05-18T00:03:24.085Z,100750.44
2023-05-18T00:05:51.187Z,100748.69
2023-05-18T00:08:18.564Z,100746.94
2023-05-18T00:10:45.604Z,100748.56
2023-05-18T00:13:12.554Z,100749.38
2023-05-18T00:15:39.652Z,100744.22
2023-05-18T00:18:06.946Z,100750.91
2023-05-18T00:20:34.666Z,100747.41
2023-05-18T00:23:02.341Z,100743.91
2023-05-18T00:25:29.602Z,100746.38
2023-05-18T00:27:56.744Z,100745.47
2023-05-18T00:30:25.585Z,100744.56
2023-05-18T00:32:52.794Z,100752.94
2023-05-18T00:35:19.967Z,100755.44
2023-05-18T00:37:47.067Z,100752.00
2023-05-18T00:40:14.099Z,100744.38
2023-05-18T00:42:41.154Z,100745.94
2023-05-18T00:45:10.095Z,100749.22
2023-05-18T00:47:37.244Z,100749.22
2023-05-18T00:50:05.038Z,100742.41
2023-05-18T00:52:33.360Z,100738.13
2023-05-18T00:55:00.494Z,100747.38
2023-05-18T00:57:28.596Z,100740.59
2023-05-18T00:59:57.691Z,100743.03
2023-05-18T01:02:24.811Z,100739.69
2023-05-18T01:04:52.792Z,100745.56
2023-05-18T01:07:23.167Z,100748.16
2023-05-18T01:09:50.856Z,100743.03
2023-05-18T01:12:28.353Z,100747.25
2023-05-18T01:15:19.947Z,100743.88
2023-05-18T01:18:10.229Z,100749.72
2023-05-18T01:20:45.991Z,100745.50
2023-05-18T01:23:41.614Z,100747.19
2023-05-18T01:26:13.205Z,100735.34
2023-05-18T01:28:42.940Z,100742.13
2023-05-18T01:31:11.327Z,100730.31
2023-05-18T01:33:38.384Z,100745.47
2023-05-18T01:36:05.878Z,100743.72
2023-05-18T01:38:33.263Z,100739.38
2023-05-18T01:41:21.213Z,100741.81
2023-05-18T01:44:34.612Z,100735.78
2023-05-18T01:47:04.730Z,100736.38
2023-05-18T01:49:56.132Z,100738.00
2023-05-18T01:52:46.348Z,100738.69
2023-05-18T01:55:16.606Z,100736.94
2023-05-18T01:57:48.244Z,100742.00
2023-05-18T02:00:18.672Z,100736.94
2023-05-18T02:02:47.432Z,100737.81
2023-05-18T02:05:16.782Z,100734.44
2023-05-18T02:07:44.127Z,100733.59
2023-05-18T02:10:12.106Z,100739.50
2023-05-18T02:12:39.090Z,100744.50
2023-05-18T02:15:07.600Z,100738.56
2023-05-18T02:17:39.548Z,100745.25
2023-05-18T02:20:11.078Z,100746.00
2023-05-18T02:22:38.129Z,100746.00
2023-05-18T02:25:05.825Z,100749.28
2023-05-18T02:27:33.429Z,100745.03
2023-05-18T02:30:00.569Z,100744.94
2023-05-18T02:32:27.929Z,100752.44
2023-05-18T02:34:55.025Z,100753.22
2023-05-18T02:37:23.161Z,100757.38
2023-05-18T02:39:50.535Z,100750.53
2023-05-18T02:42:17.582Z,100759.72
2023-05-18T02:44:44.611Z,100756.25
2023-05-18T02:47:15.032Z,100754.44
2023-05-18T02:49:42.104Z,100760.22
2023-05-18T02:52:09.277Z,100757.59
2023-05-18T02:54:36.508Z,100757.53
2023-05-18T02:57:07.434Z,100754.94
2023-05-18T02:59:44.963Z,100750.66
2023-05-18T03:02:14.261Z,100755.72
2023-05-18T03:04:41.838Z,100761.53
2023-05-18T03:07:10.463Z,100760.63
2023-05-18T03:09:38.001Z,100757.13
2023-05-18T03:12:06.616Z,100758.75
2023-05-18T03:14:34.592Z,100761.16
2023-05-18T03:17:05.865Z,100757.69
2023-05-18T03:19:34.867Z,100761.78
2023-05-18T03:22:02.114Z,100755.75
2023-05-18T03:24:30.235Z,100758.09
2023-05-18T03:27:00.859Z,100754.59
2023-05-18T03:29:30.579Z,100759.56
2023-05-18T03:31:58.932Z,100762.00
2023-05-18T03:34:26.072Z,100756.84
2023-05-18T03:36:54.790Z,100764.38
2023-05-18T03:39:21.957Z,100756.78
2023-05-18T03:41:49.007Z,100759.19
2023-05-18T03:44:16.190Z,100767.69
2023-05-18T03:46:43.302Z,100767.69
2023-05-18T03:49:10.815Z,100766.94
2023-05-18T03:51:41.781Z,100771.97
2023-05-18T03:54:09.000Z,100764.44
2023-05-18T03:56:36.620Z,100774.56
2023-05-18T03:59:04.896Z,100770.47
2023-05-18T04:01:33.722Z,100766.38
2023-05-18T04:04:01.830Z,100767.38
2023-05-18T04:06:29.971Z,100765.88
2023-05-18T04:08:57.009Z,100771.13
2023-05-18T04:11:25.954Z,100762.09
2023-05-18T04:13:53.016Z,100763.16
2023-05-18T04:16:21.909Z,100765.09
2023-05-18T04:18:48.986Z,100767.94
2023-05-18T04:21:16.143Z,100770.75
2023-05-18T04:23:47.182Z,100766.00
2023-05-18T04:26:19.954Z,100768.88
2023-05-18T04:28:47.385Z,100765.03
2023-05-18T04:31:14.499Z,100766.22
2023-05-18T04:33:42.054Z,100764.13
2023-05-18T04:36:09.574Z,100767.00
2023-05-18T04:38:36.614Z,100783.41
2023-05-18T04:41:07.616Z,100774.53
2023-05-18T04:43:36.463Z,100788.38
2023-05-18T04:46:03.922Z,100787.91
2023-05-18T04:48:32.544Z,100796.75
2023-05-18T04:51:04.702Z,100783.63
2023-05-18T04:53:33.606Z,100784.84
2023-05-18T04:56:01.814Z,100786.03
2023-05-18T04:58:30.651Z,100794.81
2023-05-18T05:00:57.815Z,100795.94
2023-05-18T05:03:25.000Z,100787.72
2023-05-18T05:05:52.633Z,100788.81
2023-05-18T05:08:19.721Z,100790.72
2023-05-18T05:10:46.691Z,100795.16
2023-05-18T05:13:13.754Z,100792.88
2023-05-18T05:15:40.996Z,100789.69
2023-05-18T05:18:08.440Z,100785.59
2023-05-18T05:20:35.700Z,100789.13
2023-05-18T05:23:02.986Z,100785.81
2023-05-18T05:25:30.414Z,100772.34
2023-05-18T05:27:57.604Z,100782.59
2023-05-18T05:30:25.084Z,100785.22
2023-05-18T05:32:52.117Z,100782.72
2023-05-18T05:35:19.408Z,100784.47
2023-05-18T05:37:47.708Z,100786.25
2023-05-18T05:40:15.791Z,100790.56
2023-05-18T05:42:45.350Z,100793.16
2023-05-18T05:45:13.512Z,100793.28
2023-05-18T05:47:45.308Z,100791.66
2023-05-18T05:50:13.457Z,100785.81
2023-05-18T05:52:40.537Z,100790.97
2023-05-18T05:55:07.871Z,100802.91
2023-05-18T05:57:35.886Z,100803.00
2023-05-18T06:00:04.792Z,100798.81
2023-05-18T06:02:48.807Z,100799.72
2023-05-18T06:05:20.620Z,100798.94
2023-05-18T06:07:48.048Z,100795.59
2023-05-18T06:10:15.226Z,100798.13
2023-05-18T06:12:42.334Z,100804.97
2023-05-18T06:15:10.358Z,100798.97
2023-05-18T06:17:40.055Z,100797.28
2023-05-18T06:20:08.081Z,100804.06
2023-05-18T06:22:36.321Z,100808.22
2023-05-18T06:25:26.600Z,100808.97
2023-05-18T06:28:05.295Z,100797.81
2023-05-18T06:30:40.070Z,100794.31
2023-05-18T06:33:16.612Z,100796.69
2023-05-18T06:35:43.610Z,100802.53
2023-05-18T06:38:10.889Z,100799.03
2023-05-18T06:40:37.880Z,100803.19
2023-05-18T06:43:04.995Z,100800.56
2023-05-18T06:45:44.097Z,100805.59
2023-05-18T06:48:20.442Z,100801.22
2023-05-18T06:50:47.412Z,100806.22
2023-05-18T06:53:14.533Z,100797.53
2023-05-18T06:55:41.564Z,100811.06
2023-05-18T06:58:09.204Z,100806.63
2023-05-18T07:00:38.430Z,100810.66
2023-05-18T07:03:06.176Z,100806.97
2023-05-18T07:05:33.350Z,100811.81
2023-05-18T07:08:00.729Z,100807.28
2023-05-18T07:10:28.881Z,100811.28
2023-05-18T07:12:56.496Z,100808.47
2023-05-18T07:15:25.896Z,100804.59
2023-05-18T07:17:53.082Z,100820.28
2023-05-18T07:20:20.203Z,100810.22
2023-05-18T07:22:47.318Z,100810.34
2023-05-18T07:25:15.070Z,100811.34
2023-05-18T07:27:42.437Z,100821.47
2023-05-18T07:30:10.280Z,100812.69
2023-05-18T07:32:37.578Z,100816.41
2023-05-18T07:35:05.185Z,100813.69
2023-05-18T07:37:32.242Z,100803.84
2023-05-18T07:39:59.416Z,100804.78
2023-05-18T07:42:26.475Z,100798.91
2023-05-18T07:44:53.597Z,100791.25
2023-05-18T07:47:21.501Z,100794.19
2023-05-18T07:49:48.827Z,100795.81
2023-05-18T07:52:15.860Z,100789.75
2023-05-18T07:54:42.990Z,100797.38
2023-05-18T07:57:10.089Z,100792.59
2023-05-18T07:59:37.204Z,100796.88
2023-05-18T08:02:05.448Z,100795.22
2023-05-18T08:04:32.952Z,100789.56
2023-05-18T08:07:00.892Z,100783.22
2023-05-18T08:09:27.985Z,100789.88
2023-05-18T08:11:55.400Z,100789.50
2023-05-18T08:14:22.509Z,100783.94
2023-05-18T08:16:49.681Z,100785.34
2023-05-18T08:19:17.208Z,100789.44
2023-05-18T08:21:46.189Z,100788.41
2023-05-18T08:24:13.357Z,100794.56
2023-05-18T08:26:40.473Z,100793.25
2023-05-18T08:29:10.305Z,100782.13
2023-05-18T08:31:41.441Z,100787.25
2023-05-18T08:34:08.968Z,100780.44
2023-05-18T08:36:36.883Z,100781.91
2023-05-18T08:39:05.471Z,100783.81
2023-05-18T08:41:42.137Z,100774.41
2023-05-18T08:44:21.783Z,100776.16
2023-05-18T08:46:51.417Z,100775.06
2023-05-18T08:49:21.730Z,100780.97
2023-05-18T08:51:57.682Z,100775.63
2023-05-18T08:54:24.934Z,100777.47
2023-05-18T08:56:53.667Z,100774.63
2023-05-18T08:59:26.688Z,100771.50
2023-05-18T09:01:55.153Z,100772.34
2023-05-18T09:04:23.803Z,100770.38
2023-05-18T09:06:54.138Z,100767.50
2023-05-18T09:09:23.860Z,100768.66
2023-05-18T09:11:52.178Z,100775.81
2023-05-18T09:14:19.347Z,100771.63
2023-05-18T09:16:46.388Z,100765.81
2023-05-18T09:19:13.536Z,100760.97
2023-05-18T09:21:40.753Z,100759.78
2023-05-18T09:24:08.552Z,100758.97
2023-05-18T09:26:35.676Z,100764.00
2023-05-18T09:29:02.686Z,100761.78
2023-05-18T09:31:31.005Z,100775.03
2023-05-18T09:33:59.973Z,100765.56
2023-05-18T09:36:29.583Z,100764.53
2023-05-18T09:38:56.662Z,100765.72
2023-05-18T09:41:27.695Z,100761.91
2023-05-18T09:43:54.891Z,100761.84
2023-05-18T09:46:22.102Z,100768.94
2023-05-18T09:48:54.921Z,100760.44
2023-05-18T09:51:25.067Z,100761.41
2023-05-18T09:53:57.930Z,100770.28
2023-05-18T09:56:26.943Z,100779.22
2023-05-18T09:58:55.057Z,100762.28
2023-05-18T10:01:22.161Z,100773.03
2023-05-18T10:03:49.868Z,100757.97
2023-05-18T10:06:21.296Z,100759.91
2023-05-18T10:08:48.787Z,100749.22
2023-05-18T10:11:21.915Z,100750.53
2023-05-18T10:13:55.913Z,100746.28
2023-05-18T10:16:24.322Z,100753.28
2023-05-18T10:18:54.760Z,100754.03
2023-05-18T10:21:26.428Z,100746.69
2023-05-18T10:23:53.485Z,100742.66
2023-05-18T10:26:25.675Z,100743.47
2023-05-18T10:28:56.920Z,100728.53
2023-05-18T10:31:27.116Z,100731.78
2023-05-18T10:33:55.860Z,100732.28
2023-05-18T10:36:25.839Z,100738.44
2023-05-18T10:38:53.958Z,100727.16
2023-05-18T10:41:22.895Z,100732.53
2023-05-18T10:43:51.127Z,100732.38
2023-05-18T10:46:18.666Z,100730.47
2023-05-18T10:48:51.386Z,100736.19
2023-05-18T10:51:20.239Z,100726.97
2023-05-18T10:53:48.309Z,100734.06
2023-05-18T10:56:18.779Z,100732.47
2023-05-18T10:58:47.497Z,100735.06
2023-05-18T11:01:15.527Z,100730.47
2023-05-18T11:03:42.574Z,100728.25
2023-05-18T11:06:14.969Z,100717.84
2023-05-18T11:08:46.984Z,100718.47
2023-05-18T11:11:16.487Z,100723.25
2023-05-18T11:13:49.643Z,100708.16
2023-05-18T11:16:18.308Z,100704.56
2023-05-18T11:18:50.739Z,100697.84
2023-05-18T11:21:24.364Z,100699.47
2023-05-18T11:24:26.549Z,100699.00
2023-05-18T11:26:55.518Z,100695.13
2023-05-18T11:29:31.101Z,100691.19
2023-05-18T11:31:58.922Z,100685.22
2023-05-18T11:34:59.453Z,100692.19
2023-05-18T11:37:46.558Z,100689.97
2023-05-18T11:40:50.104Z,100687.28
2023-05-18T11:43:24.562Z,100698.53
2023-05-18T11:45:59.024Z,100702.09
2023-05-18T11:48:31.595Z,100697.88
2023-05-18T11:50:58.800Z,100689.75
2023-05-18T11:53:27.297Z,100687.84
2023-05-18T11:55:54.860Z,100690.34
2023-05-18T11:58:25.235Z,100692.94
2023-05-18T12:00:53.268Z,100687.13
2023-05-18T12:03:26.987Z,100675.25
2023-05-18T12:05:58.051Z,100669.63
2023-05-18T12:08:29.548Z,100677.22
2023-05-18T12:10:57.431Z,100666.25
2023-05-18T12:13:25.117Z,100671.44
2023-05-18T12:15:58.090Z,100667.16
2023-05-18T12:18:29.704Z,100673.34
2023-05-18T12:20:56.602Z,100664.81
2023-05-18T12:23:37.227Z,100665.84
2023-05-18T12:26:04.280Z,100666.13
2023-05-18T12:28:31.306Z,100662.06
2023-05-18T12:30:59.043Z,100660.50
2023-05-18T12:33:26.019Z,100662.97
2023-05-18T12:35:55.065Z,100653.44
2023-05-18T12:38:27.787Z,100655.22
2023-05-18T12:40:57.081Z,100655.75
2023-05-18T12:43:26.663Z,100650.47
2023-05-18T12:45:54.530Z,100664.31
2023-05-18T12:48:26.523Z,100650.31
2023-05-18T12:50:53.561Z,100657.22
2023-05-18T12:53:20.849Z,100657.66
2023-05-18T12:55:59.520Z,100659.94
2023-05-18T12:58:26.754Z,100653.13
2023-05-18T13:00:53.742Z,100657.66
2023-05-18T13:03:21.972Z,100644.25
2023-05-18T13:06:11.923Z,100650.56
2023-05-18T13:08:38.980Z,100638.69
2023-05-18T13:11:14.280Z,100646.56
2023-05-18T13:14:07.584Z,100632.41
2023-05-18T13:16:38.440Z,100631.94
2023-05-18T13:19:10.125Z,100628.66
2023-05-18T13:21:37.995Z,100629.44
2023-05-18T13:24:05.750Z,100627.72
2023-05-18T13:26:32.962Z,100621.09
2023-05-18T13:29:00.315Z,100622.84
2023-05-18T13:31:29.426Z,100628.00
2023-05-18T13:33:57.145Z,100621.81
2023-05-18T13:36:24.196Z,100623.50
2023-05-18T13:38:52.325Z,100626.06
2023-05-18T13:41:19.407Z,100615.00
2023-05-18T13:43:46.625Z,100617.94
2023-05-18T13:46:13.738Z,100611.38
2023-05-18T13:48:40.715Z,100604.78
2023-05-18T13:51:07.758Z,100607.63
2023-05-18T13:53:34.719Z,100602.69
2023-05-18T13:56:01.649Z,100602.88
2023-05-18T13:58:28.595Z,100611.81
2023-05-18T14:00:55.625Z,100607.06
2023-05-18T14:03:24.391Z,100601.31
2023-05-18T14:05:51.699Z,100592.81
2023-05-18T14:08:18.615Z,100591.94
2023-05-18T14:10:45.565Z,100596.28
2023-05-18T14:13:12.647Z,100585.97
2023-05-18T14:15:39.544Z,100586.84
2023-05-18T14:18:06.575Z,100584.31
2023-05-18T14:20:33.918Z,100587.13
2023-05-18T14:23:03.012Z,100586.41
2023-05-18T14:25:31.191Z,100579.03
2023-05-18T14:27:58.089Z,100576.66
2023-05-18T14:30:24.988Z,100576.66
2023-05-18T14:32:52.039Z,100570.47
2023-05-18T14:35:19.059Z,100574.59
2023-05-18T14:37:45.987Z,100572.06
2023-05-18T14:40:13.026Z,100573.06
2023-05-18T14:42:40.058Z,100571.41
2023-05-18T14:45:07.944Z,100571.56
2023-05-18T14:47:34.870Z,100575.94
2023-05-18T14:50:01.894Z,100566.63
2023-05-18T14:52:29.000Z,100564.97
2023-05-18T14:54:55.900Z,100570.22
2023-05-18T14:57:24.747Z,100572.97
2023-05-18T14:59:52.925Z,100566.28
2023-05-18T15:02:19.864Z,100575.03
2023-05-18T15:04:46.763Z,100574.25
2023-05-18T15:07:13.687Z,100572.66
2023-05-18T15:09:40.605Z,100569.34
2023-05-18T15:12:07.763Z,100576.25
2023-05-18T15:14:35.249Z,100573.78
2023-05-18T15:17:02.144Z,100570.50
2023-05-18T15:19:29.185Z,100567.25
2023-05-18T15:21:56.177Z,100564.84
2023-05-18T15:24:24.085Z,100559.78
2023-05-18T15:26:51.214Z,100565.00
2023-05-18T15:29:18.124Z,100565.94
2023-05-18T15:31:45.647Z,100562.53
2023-05-18T15:34:12.704Z,100568.69
2023-05-18T15:36:39.625Z,100568.84
2023-05-18T15:39:06.527Z,100557.00
2023-05-18T15:41:33.768Z,100558.88
2023-05-18T15:44:01.833Z,100560.66
2023-05-18T15:46:35.193Z,100563.34
2023-05-18T15:49:02.836Z,100559.22
2023-05-18T15:51:31.175Z,100557.66
2023-05-18T15:53:58.187Z,100558.63
2023-05-18T15:56:25.124Z,100548.53
2023-05-18T15:58:52.072Z,100554.59
2023-05-18T16:01:19.111Z,100541.91
2023-05-18T16:03:46.355Z,100543.78
2023-05-18T16:06:13.604Z,100538.69
2023-05-18T16:08:40.561Z,100543.03
2023-05-18T16:11:07.738Z,100539.69
2023-05-18T16:13:34.946Z,100540.59
2023-05-18T16:16:03.672Z,100545.81
2023-05-18T16:18:30.716Z,100538.97
2023-05-18T16:20:57.722Z,100532.22
2023-05-18T16:23:24.712Z,100534.84
2023-05-18T16:25:51.972Z,100531.53
2023-05-18T16:28:18.903Z,100537.53
2023-05-18T16:30:45.833Z,100534.13
2023-05-18T16:33:12.846Z,100536.75
2023-05-18T16:35:39.851Z,100535.03
2023-05-18T16:38:07.283Z,100543.66
2023-05-18T16:40:34.366Z,100539.47
2023-05-18T16:43:01.403Z,100537.03
2023-05-18T16:45:28.408Z,100535.38
2023-05-18T16:47:55.505Z,100536.31
2023-05-18T16:50:22.589Z,100534.72
2023-05-18T16:52:49.540Z,100527.16
2023-05-18T16:55:16.650Z,100526.34
2023-05-18T16:57:43.624Z,100521.28
2023-05-18T17:00:11.651Z,100520.47
2023-05-18T17:02:39.826Z,100518.81
2023-05-18T17:05:08.557Z,100519.72
2023-05-18T17:07:37.115Z,100518.97
2023-05-18T17:10:07.720Z,100520.78
2023-05-18T17:12:36.677Z,100531.97
2023-05-18T17:15:04.259Z,100520.09
2023-05-18T17:17:31.272Z,100532.16
2023-05-18T17:19:58.421Z,100516.00
2023-05-18T17:22:25.442Z,100524.59
2023-05-18T17:24:52.357Z,100524.66
2023-05-18T17:27:19.336Z,100531.56
2023-05-18T17:29:46.406Z,100526.56
2023-05-18T17:32:13.347Z,100526.69
2023-05-18T17:34:40.514Z,100531.06
2023-05-18T17:37:07.508Z,100526.00
2023-05-18T17:39:34.548Z,100530.41
2023-05-18T17:42:01.761Z,100533.03
2023-05-18T17:44:28.995Z,100533.94
2023-05-18T17:46:57.549Z,100533.94
2023-05-18T17:49:24.720Z,100522.06
2023-05-18T17:51:52.574Z,100518.75
2023-05-18T17:54:19.597Z,100529.03
2023-05-18T17:56:46.678Z,100526.53
2023-05-18T17:59:13.728Z,100522.34
2023-05-18T18:01:41.779Z,100521.56
2023-05-18T18:04:09.323Z,100519.06
2023-05-18T18:06:36.625Z,100519.19
2023-05-18T18:09:07.018Z,100523.50
2023-05-18T18:11:34.476Z,100527.84
2023-05-18T18:14:02.337Z,100527.09
2023-05-18T18:16:29.435Z,100521.13
2023-05-18T18:18:56.707Z,100526.31
2023-05-18T18:21:23.796Z,100534.91
2023-05-18T18:23:50.846Z,100528.19
2023-05-18T18:26:17.873Z,100528.22
2023-05-18T18:28:44.849Z,100534.25
2023-05-18T18:31:11.951Z,100537.72
2023-05-18T18:33:38.954Z,100541.19
2023-05-18T18:36:07.529Z,100537.84
2023-05-18T18:38:34.566Z,100539.66
2023-05-18T18:41:04.300Z,100540.56
2023-05-18T18:43:31.751Z,100541.47
2023-05-18T18:45:59.547Z,100544.91
2023-05-18T18:48:27.081Z,100542.44
2023-05-18T18:50:54.158Z,100545.09
2023-05-18T18:53:21.303Z,100543.47
2023-05-18T18:55:49.026Z,100544.41
2023-05-18T18:58:16.472Z,100545.31
2023-05-18T19:00:43.821Z,100547.97
2023-05-18T19:03:10.981Z,100547.19
2023-05-18T19:05:39.116Z,100549.81
2023-05-18T19:08:06.294Z,100543.91
2023-05-18T19:10:34.299Z,100561.00
2023-05-18T19:13:05.464Z,100551.69
2023-05-18T19:15:34.888Z,100562.81
2023-05-18T19:18:03.210Z,100566.28
2023-05-18T19:20:30.395Z,100565.50
2023-05-18T19:22:57.529Z,100561.34
2023-05-18T19:25:25.571Z,100576.44
2023-05-18T19:27:53.609Z,100564.59
2023-05-18T19:30:22.160Z,100565.59
2023-05-18T19:32:51.717Z,100572.50
2023-05-18T19:35:23.709Z,100576.84
2023-05-18T19:37:51.761Z,100579.44
2023-05-18T19:40:19.064Z,100579.47
2023-05-18T19:42:46.064Z,100578.69
2023-05-18T19:45:13.085Z,100590.59
2023-05-18T19:47:40.143Z,100592.34
2023-05-18T19:50:08.066Z,100600.00
2023-05-18T19:52:35.102Z,100598.31
2023-05-18T19:55:02.548Z,100598.31
2023-05-18T19:57:29.866Z,100600.91
2023-05-18T19:59:57.643Z,100600.91
2023-05-18T20:02:24.886Z,100599.22
2023-05-18T20:04:53.296Z,100603.47
2023-05-18T20:07:22.445Z,100600.09
2023-05-18T20:09:52.816Z,100601.81
2023-05-18T20:12:20.139Z,100601.84
2023-05-18T20:14:47.345Z,100603.56
2023-05-18T20:17:15.150Z,100604.41
2023-05-18T20:19:49.649Z,100600.16
2023-05-18T20:22:20.301Z,100611.22
2023-05-18T20:24:48.821Z,100613.81
2023-05-18T20:27:16.622Z,100613.81
2023-05-18T20:29:43.721Z,100615.50
2023-05-18T20:32:10.761Z,100620.63
2023-05-18T20:34:37.943Z,100626.53
2023-05-18T20:37:05.804Z,100624.84
2023-05-18T20:39:32.933Z,100626.56
2023-05-18T20:42:00.009Z,100627.41
2023-05-18T20:44:28.676Z,100625.72
2023-05-18T20:46:55.935Z,100624.00
2023-05-18T20:49:24.854Z,100631.66
2023-05-18T20:51:51.917Z,100621.44
2023-05-18T20:54:20.791Z,100632.47
2023-05-18T20:56:48.134Z,100636.72
2023-05-18T20:59:16.083Z,100631.63
2023-05-18T21:01:43.218Z,100635.84
2023-05-18T21:04:12.494Z,100630.78
2023-05-18T21:06:40.826Z,100635.00
2023-05-18T21:09:08.166Z,100639.25
2023-05-18T21:11:35.683Z,100637.53
2023-05-18T21:14:02.674Z,100643.50
2023-05-18T21:16:29.764Z,100637.56
2023-05-18T21:18:56.876Z,100638.38
2023-05-18T21:21:23.872Z,100642.66
2023-05-18T21:23:50.902Z,100643.47
2023-05-18T21:26:18.013Z,100641.75
2023-05-18T21:28:45.567Z,100643.47
2023-05-18T21:31:12.606Z,100637.53
2023-05-18T21:33:39.710Z,100637.50
2023-05-18T21:36:08.958Z,100632.38
2023-05-18T21:38:36.081Z,100643.41
2023-05-18T21:41:03.231Z,100642.53
2023-05-18T21:43:30.203Z,100645.06
2023-05-18T21:45:57.272Z,100645.06
2023-05-18T21:48:24.414Z,100642.50
2023-05-18T21:50:51.407Z,100643.31
2023-05-18T21:53:18.976Z,100644.16
2023-05-18T21:55:46.215Z,100639.91
2023-05-18T21:58:13.245Z,100633.09
2023-05-18T22:00:40.283Z,100632.25
2023-05-18T22:03:07.346Z,100633.09
2023-05-18T22:05:34.913Z,100639.00
2023-05-18T22:08:01.913Z,100638.13
2023-05-18T22:10:31.021Z,100633.06
2023-05-18T22:12:58.410Z,100638.94
2023-05-18T22:15:25.406Z,100637.22
2023-05-18T22:17:54.058Z,100630.44
2023-05-18T22:20:21.434Z,100632.97
2023-05-18T22:22:48.589Z,100638.91
2023-05-18T22:25:17.959Z,100634.63
2023-05-18T22:27:45.821Z,100637.19
2023-05-18T22:30:14.102Z,100639.72
2023-05-18T22:32:41.237Z,100642.22
2023-05-18T22:35:09.473Z,100644.75
2023-05-18T22:37:36.665Z,100647.28
2023-05-18T22:40:06.369Z,100650.66
2023-05-18T22:42:33.884Z,100636.25
2023-05-18T22:45:01.231Z,100640.47
2023-05-18T22:47:29.534Z,100639.56
2023-05-18T22:49:56.936Z,100638.69
2023-05-18T22:52:24.086Z,100635.25
2023-05-18T22:54:51.070Z,100637.75
2023-05-18T22:57:18.113Z,100637.75
2023-05-18T22:59:45.244Z,100636.84
2023-05-18T23:02:12.431Z,100635.06
2023-05-18T23:04:39.600Z,100642.63
2023-05-18T23:07:07.322Z,100641.75
2023-05-18T23:09:36.901Z,100647.63
2023-05-18T23:12:04.543Z,100647.56
2023-05-18T23:14:33.687Z,100653.50
2023-05-18T23:17:01.060Z,100645.84
2023-05-18T23:19:28.533Z,100641.59
2023-05-18T23:21:56.441Z,100642.41
2023-05-18T23:24:23.495Z,100635.59
2023-05-18T23:26:50.534Z,100638.13
2023-05-18T23:29:17.596Z,100636.38
2023-05-18T23:31:44.661Z,100632.91
2023-05-18T23:34:12.073Z,100632.88
2023-05-18T23:36:42.692Z,100633.69
2023-05-18T23:39:10.766Z,100626.00
2023-05-18T23:41:39.103Z,100635.34
2023-05-18T23:44:06.872Z,100629.38
2023-05-18T23:46:34.982Z,100627.66
2023-05-18T23:49:02.479Z,100625.94
2023-05-18T23:51:33.390Z,100626.75
2023-05-18T23:54:02.984Z,100626.72
2023-05-18T23:56:30.688Z,100630.06
2023-05-18T23:58:58.478Z,100630.06
